createdAt,value
2018-03-28T00:00:29.484Z,41.67
2018-03-28T00:02:57.042Z,35.50
2018-03-28T00:05:25.294Z,31.73
2018-03-28T00:07:53.143Z,36.70
2018-03-28T00:10:20.721Z,34.57
2018-03-28T00:12:49.314Z,37.50
2018-03-28T00:15:17.205Z,37.53
2018-03-28T00:17:44.975Z,36.90
2018-03-28T00:20:13.402Z,34.93
2018-03-28T00:22:41.363Z,36.37
2018-03-28T00:25:09.678Z,35.90
2018-03-28T00:27:37.405Z,38.80
2018-03-28T00:30:05.012Z,83.20
2018-03-28T00:32:32.567Z,48.23
2018-03-28T00:35:00.558Z,43.40
2018-03-28T00:37:28.106Z,62.77
2018-03-28T00:39:55.704Z,55.23
2018-03-28T00:42:23.276Z,52.27
2018-03-28T00:44:51.961Z,78.20
2018-03-28T00:47:19.507Z,75.43
2018-03-28T00:49:47.106Z,78.03
2018-03-28T00:52:14.674Z,52.37
2018-03-28T00:54:42.511Z,45.13
2018-03-28T00:57:10.084Z,46.53
2018-03-28T00:59:37.685Z,46.23
2018-03-28T01:02:05.240Z,52.20
2018-03-28T01:04:33.682Z,53.43
2018-03-28T01:07:01.252Z,46.77
2018-03-28T01:09:29.425Z,45.97
2018-03-28T01:11:57.077Z,40.93
2018-03-28T01:14:24.602Z,42.57
2018-03-28T01:16:52.196Z,46.77
2018-03-28T01:19:19.798Z,40.57
2018-03-28T01:21:47.399Z,44.23
2018-03-28T01:24:14.943Z,44.37
2018-03-28T01:26:42.508Z,46.10
2018-03-28T01:29:10.086Z,45.03
2018-03-28T01:31:37.670Z,36.17
2018-03-28T01:34:05.268Z,44.37
2018-03-28T01:36:32.819Z,37.97
2018-03-28T01:39:00.388Z,36.20
2018-03-28T01:41:27.951Z,41.23
2018-03-28T01:43:55.555Z,41.13
2018-03-28T01:46:23.159Z,34.33
2018-03-28T01:48:50.754Z,37.80
2018-03-28T01:51:18.299Z,35.40
2018-03-28T01:53:45.901Z,34.23
2018-03-28T01:56:13.508Z,34.67
2018-03-28T01:58:41.103Z,34.90
2018-03-28T02:01:08.889Z,34.13
2018-03-28T02:03:36.494Z,35.27
2018-03-28T02:06:04.049Z,38.77
2018-03-28T02:08:31.599Z,33.57
2018-03-28T02:10:59.196Z,35.20
2018-03-28T02:13:26.756Z,33.43
2018-03-28T02:15:54.361Z,36.37
2018-03-28T02:18:22.007Z,35.30
2018-03-28T02:20:49.639Z,31.60
2018-03-28T02:23:17.201Z,43.73
2018-03-28T02:25:44.795Z,31.80
2018-03-28T02:28:12.385Z,32.07
2018-03-28T02:30:39.979Z,34.87
2018-03-28T02:33:07.540Z,32.43
2018-03-28T02:35:35.136Z,32.80
2018-03-28T02:38:02.700Z,32.30
2018-03-28T02:40:30.292Z,39.60
2018-03-28T02:42:58.566Z,49.77
2018-03-28T02:45:26.120Z,36.57
2018-03-28T02:47:53.712Z,37.17
2018-03-28T02:50:21.274Z,39.50
2018-03-28T02:52:48.869Z,43.07
2018-03-28T02:55:16.435Z,38.87
2018-03-28T02:57:44.045Z,43.33
2018-03-28T03:00:11.639Z,39.23
2018-03-28T03:02:39.231Z,38.70
2018-03-28T03:05:06.834Z,44.93
2018-03-28T03:07:34.393Z,42.70
2018-03-28T03:10:02.166Z,54.23
2018-03-28T03:12:30.074Z,45.57
2018-03-28T03:14:57.663Z,44.00
2018-03-28T03:17:25.516Z,37.40
2018-03-28T03:19:53.085Z,40.57
2018-03-28T03:22:20.697Z,44.47
2018-03-28T03:24:48.272Z,42.03
2018-03-28T03:27:15.867Z,39.53
2018-03-28T03:29:43.419Z,38.47
2018-03-28T03:32:11.036Z,38.57
2018-03-28T03:34:38.646Z,41.83
2018-03-28T03:37:06.244Z,39.53
2018-03-28T03:39:33.784Z,34.47
2018-03-28T03:42:01.747Z,38.03
2018-03-28T03:44:29.481Z,41.57
2018-03-28T03:46:57.074Z,38.90
2018-03-28T03:49:24.690Z,40.50
2018-03-28T03:51:52.296Z,40.73
2018-03-28T03:54:19.879Z,45.07
2018-03-28T03:56:47.436Z,42.70
2018-03-28T03:59:15.033Z,45.37
2018-03-28T04:01:42.588Z,51.27
2018-03-28T04:04:10.188Z,47.40
2018-03-28T04:06:38.194Z,47.10
2018-03-28T04:09:06.424Z,42.00
2018-03-28T04:11:34.023Z,40.53
2018-03-28T04:14:01.612Z,43.13
2018-03-28T04:16:29.211Z,49.77
2018-03-28T04:18:56.810Z,55.53
2018-03-28T04:21:24.907Z,50.20
2018-03-28T04:23:52.455Z,46.33
2018-03-28T04:26:20.061Z,39.87
2018-03-28T04:28:47.621Z,57.03
2018-03-28T04:31:15.912Z,39.47
2018-03-28T04:33:43.506Z,38.97
2018-03-28T04:36:11.064Z,47.73
2018-03-28T04:38:38.654Z,42.57
2018-03-28T04:41:06.342Z,39.30
2018-03-28T04:43:33.943Z,40.63
2018-03-28T04:46:01.488Z,53.50
2018-03-28T04:48:29.131Z,56.70
2018-03-28T04:50:56.717Z,77.07
2018-03-28T04:53:24.280Z,61.53
2018-03-28T04:55:51.953Z,54.60
2018-03-28T04:58:19.540Z,60.80
2018-03-28T05:00:47.118Z,49.57
2018-03-28T05:03:15.459Z,67.20
2018-03-28T05:05:43.429Z,66.05
2018-03-28T05:08:11.025Z,75.07
2018-03-28T05:10:38.901Z,55.20
2018-03-28T05:13:06.817Z,99.73
2018-03-28T05:15:35.127Z,61.27
2018-03-28T05:18:03.992Z,65.83
2018-03-28T05:20:31.566Z,111.47
2018-03-28T05:22:59.188Z,187.77
2018-03-28T05:25:26.761Z,231.35
2018-03-28T05:27:55.088Z,197.13
2018-03-28T05:30:22.658Z,137.90
2018-03-28T05:32:51.753Z,143.23
2018-03-28T05:35:19.336Z,114.37
2018-03-28T05:37:46.892Z,141.62
2018-03-28T05:40:14.519Z,165.57
2018-03-28T05:42:42.540Z,125.53
2018-03-28T05:45:10.139Z,125.30
2018-03-28T05:47:38.500Z,110.67
2018-03-28T05:50:08.441Z,145.37
2018-03-28T05:52:35.996Z,100.70
2018-03-28T05:55:03.990Z,88.70
2018-03-28T05:57:31.608Z,87.10
2018-03-28T05:59:59.172Z,101.80
2018-03-28T06:02:26.788Z,102.97
2018-03-28T06:04:55.307Z,97.80
2018-03-28T06:07:23.017Z,96.83
2018-03-28T06:09:50.767Z,115.57
2018-03-28T06:12:18.478Z,101.13
2018-03-28T06:14:47.168Z,124.28
2018-03-28T06:17:14.727Z,86.70
2018-03-28T06:19:42.708Z,80.47
2018-03-28T06:22:10.316Z,98.93
2018-03-28T06:24:38.025Z,145.15
2018-03-28T06:27:05.624Z,90.70
2018-03-28T06:29:33.436Z,99.23
2018-03-28T06:32:01.983Z,90.37
2018-03-28T06:34:29.619Z,100.63
2018-03-28T06:36:57.177Z,87.20
2018-03-28T06:39:24.729Z,94.80
2018-03-28T06:41:52.352Z,102.93
2018-03-28T06:44:19.918Z,102.97
2018-03-28T06:46:47.581Z,89.63
2018-03-28T06:49:15.156Z,114.30
2018-03-28T06:51:42.790Z,87.97
2018-03-28T06:54:10.363Z,69.27
2018-03-28T06:56:38.680Z,98.87
2018-03-28T06:59:06.331Z,93.07
2018-03-28T07:01:33.887Z,84.27
2018-03-28T07:04:01.489Z,82.97
2018-03-28T07:06:29.110Z,80.30
2018-03-28T07:08:56.666Z,75.67
2018-03-28T07:11:24.543Z,82.83
2018-03-28T07:13:52.146Z,67.77
2018-03-28T07:16:19.723Z,71.87
2018-03-28T07:18:48.690Z,73.93
2018-03-28T07:21:17.203Z,62.15
2018-03-28T07:23:44.758Z,62.73
2018-03-28T07:26:12.492Z,60.33
2018-03-28T07:28:40.313Z,55.27
2018-03-28T07:31:08.664Z,64.93
2018-03-28T07:33:36.275Z,58.93
2018-03-28T07:36:04.014Z,71.72
2018-03-28T07:38:32.405Z,72.07
2018-03-28T07:41:00.948Z,57.30
2018-03-28T07:43:28.515Z,58.35
2018-03-28T07:45:56.121Z,69.70
2018-03-28T07:48:24.580Z,59.00
2018-03-28T07:50:52.180Z,55.27
2018-03-28T07:53:19.744Z,57.35
2018-03-28T07:55:47.376Z,47.33
2018-03-28T07:58:16.675Z,53.00
2018-03-28T08:00:44.401Z,48.03
2018-03-28T08:03:11.999Z,44.90
2018-03-28T08:05:39.651Z,43.73
2018-03-28T08:08:07.269Z,50.30
2018-03-28T08:10:34.857Z,53.77
2018-03-28T08:13:02.427Z,45.23
2018-03-28T08:15:30.078Z,41.95
2018-03-28T08:17:58.591Z,40.83
2018-03-28T08:20:26.208Z,41.37
2018-03-28T08:22:53.839Z,41.03
2018-03-28T08:25:21.376Z,42.22
2018-03-28T08:27:50.641Z,37.63
2018-03-28T08:30:18.263Z,41.33
2018-03-28T08:32:45.973Z,42.60
2018-03-28T08:35:13.928Z,45.80
2018-03-28T08:37:42.210Z,41.20
2018-03-28T08:40:09.776Z,37.73
2018-03-28T08:42:37.383Z,39.43
2018-03-28T08:45:06.033Z,36.83
2018-03-28T08:47:33.949Z,40.80
2018-03-28T08:50:06.453Z,41.80
2018-03-28T08:52:34.711Z,65.70
2018-03-28T08:55:02.317Z,51.20
2018-03-28T08:57:29.915Z,43.33
2018-03-28T08:59:57.483Z,43.13
2018-03-28T09:02:26.945Z,35.30
2018-03-28T09:04:54.545Z,41.03
2018-03-28T09:07:23.837Z,38.27
2018-03-28T09:09:51.421Z,46.93
2018-03-28T09:12:19.963Z,42.80
2018-03-28T09:14:47.529Z,35.93
2018-03-28T09:17:15.853Z,46.97
2018-03-28T09:19:43.613Z,41.00
2018-03-28T09:22:11.173Z,41.43
2018-03-28T09:24:38.833Z,50.10
2018-03-28T09:27:06.408Z,42.47
2018-03-28T09:29:34.007Z,39.20
2018-03-28T09:32:01.592Z,37.17
2018-03-28T09:34:29.213Z,42.87
2018-03-28T09:36:56.841Z,34.43
2018-03-28T09:39:24.477Z,37.10
2018-03-28T09:41:52.076Z,37.90
2018-03-28T09:44:20.643Z,42.27
2018-03-28T09:46:48.969Z,37.53
2018-03-28T09:49:17.025Z,35.77
2018-03-28T09:51:44.632Z,41.87
2018-03-28T09:54:12.196Z,35.47
2018-03-28T09:56:39.832Z,41.23
2018-03-28T09:59:07.522Z,36.45
2018-03-28T10:01:35.157Z,37.80
2018-03-28T10:04:08.698Z,40.20
2018-03-28T10:06:36.249Z,39.20
2018-03-28T10:09:05.066Z,31.90
2018-03-28T10:11:32.667Z,37.15
2018-03-28T10:14:00.247Z,37.17
2018-03-28T10:16:27.835Z,39.63
2018-03-28T10:18:56.093Z,37.57
2018-03-28T10:21:23.848Z,42.90
2018-03-28T10:23:51.447Z,37.00
2018-03-28T10:26:19.117Z,39.40
2018-03-28T10:28:47.181Z,37.95
2018-03-28T10:31:14.739Z,44.63
2018-03-28T10:33:42.324Z,42.00
2018-03-28T10:36:10.185Z,40.43
2018-03-28T10:38:37.775Z,34.23
2018-03-28T10:41:05.371Z,35.60
2018-03-28T10:43:32.936Z,37.80
2018-03-28T10:46:00.545Z,39.83
2018-03-28T10:48:28.291Z,35.23
2018-03-28T10:50:55.911Z,34.40
2018-03-28T10:53:23.505Z,36.60
2018-03-28T10:55:52.010Z,34.00
2018-03-28T10:58:20.352Z,35.03
2018-03-28T11:00:47.965Z,43.70
2018-03-28T11:03:15.543Z,35.20
2018-03-28T11:05:44.068Z,38.67
2018-03-28T11:08:11.624Z,41.03
2018-03-28T11:10:39.242Z,39.20
2018-03-28T11:13:06.920Z,37.50
2018-03-28T11:15:34.544Z,38.53
2018-03-28T11:18:03.046Z,38.87
2018-03-28T11:20:30.805Z,37.10
2018-03-28T11:22:59.136Z,36.67
2018-03-28T11:25:26.746Z,39.10
2018-03-28T11:27:54.353Z,48.50
2018-03-28T11:30:22.807Z,36.45
2018-03-28T11:32:50.445Z,36.60
2018-03-28T11:35:18.293Z,35.17
2018-03-28T11:37:46.039Z,38.40
2018-03-28T11:40:13.661Z,33.77
2018-03-28T11:42:41.283Z,33.20
2018-03-28T11:45:08.932Z,33.83
2018-03-28T11:47:36.597Z,30.67
2018-03-28T11:50:04.173Z,31.60
2018-03-28T11:52:31.995Z,33.65
2018-03-28T11:55:00.710Z,35.50
2018-03-28T11:57:28.307Z,29.00
2018-03-28T11:59:55.907Z,29.70
2018-03-28T12:02:23.458Z,33.60
2018-03-28T12:04:51.072Z,33.87
2018-03-28T12:07:18.624Z,31.43
2018-03-28T12:09:46.223Z,34.87
2018-03-28T12:12:13.815Z,33.07
2018-03-28T12:14:41.432Z,31.97
2018-03-28T12:17:09.039Z,36.90
2018-03-28T12:19:36.825Z,41.20
2018-03-28T12:22:04.765Z,32.13
2018-03-28T12:24:33.301Z,41.40
2018-03-28T12:27:03.873Z,35.83
2018-03-28T12:29:33.739Z,39.70
2018-03-28T12:32:01.892Z,35.23
2018-03-28T12:34:30.779Z,38.50
2018-03-28T12:36:58.836Z,36.60
2018-03-28T12:39:26.612Z,39.47
2018-03-28T12:41:54.176Z,38.03
2018-03-28T12:44:23.289Z,36.25
2018-03-28T12:46:50.853Z,36.73
2018-03-28T12:49:18.444Z,35.88
2018-03-28T12:51:46.360Z,38.77
2018-03-28T12:54:14.709Z,35.80
2018-03-28T12:56:43.416Z,40.83
2018-03-28T12:59:12.349Z,34.93
2018-03-28T13:01:40.895Z,32.83
2018-03-28T13:04:09.296Z,34.43
2018-03-28T13:06:38.213Z,45.10
2018-03-28T13:09:06.051Z,45.13
2018-03-28T13:11:33.614Z,46.63
2018-03-28T13:14:01.219Z,43.90
2018-03-28T13:16:28.833Z,57.43
2018-03-28T13:18:56.432Z,40.53
2018-03-28T13:21:24.365Z,45.97
2018-03-28T13:23:51.958Z,53.93
2018-03-28T13:26:19.588Z,47.03
2018-03-28T13:28:47.753Z,50.40
2018-03-28T13:31:15.455Z,50.07
2018-03-28T13:33:44.705Z,53.17
2018-03-28T13:36:14.289Z,54.53
2018-03-28T13:38:41.864Z,47.60
2018-03-28T13:41:09.772Z,55.80
2018-03-28T13:43:39.052Z,51.83
2018-03-28T13:46:06.938Z,62.90
2018-03-28T13:48:34.544Z,51.93
2018-03-28T13:51:02.743Z,40.70
2018-03-28T13:53:30.375Z,49.13
2018-03-28T13:55:58.042Z,47.43
2018-03-28T13:58:25.592Z,45.00
2018-03-28T14:00:53.196Z,43.77
2018-03-28T14:03:20.748Z,42.43
2018-03-28T14:05:48.825Z,43.10
2018-03-28T14:08:16.385Z,39.70
2018-03-28T14:10:44.000Z,44.13
2018-03-28T14:13:11.618Z,45.60
2018-03-28T14:15:39.183Z,41.73
2018-03-28T14:18:06.785Z,40.23
2018-03-28T14:20:34.631Z,41.73
2018-03-28T14:23:02.451Z,41.10
2018-03-28T14:25:30.015Z,43.10
2018-03-28T14:27:59.219Z,37.50
2018-03-28T14:30:26.799Z,43.53
2018-03-28T14:32:54.381Z,39.90
2018-03-28T14:35:21.975Z,43.67
2018-03-28T14:37:50.131Z,46.47
2018-03-28T14:40:17.979Z,39.73
2018-03-28T14:42:54.590Z,44.67
2018-03-28T14:45:13.997Z,43.40
2018-03-28T14:47:41.531Z,43.57
2018-03-28T14:50:10.513Z,43.47
2018-03-28T14:52:38.694Z,44.23
2018-03-28T14:55:07.752Z,43.43
2018-03-28T14:57:36.547Z,49.17
2018-03-28T15:00:05.115Z,50.37
2018-03-28T15:02:32.751Z,43.73
2018-03-28T15:05:00.703Z,43.07
2018-03-28T15:07:28.300Z,43.17
2018-03-28T15:09:55.900Z,45.47
2018-03-28T15:12:24.185Z,41.30
2018-03-28T15:14:52.953Z,40.87
2018-03-28T15:17:21.169Z,37.93
2018-03-28T15:19:49.728Z,44.90
2018-03-28T15:22:17.327Z,43.20
2018-03-28T15:24:44.892Z,43.83
2018-03-28T15:27:12.479Z,38.77
2018-03-28T15:29:40.034Z,38.23
2018-03-28T15:32:07.926Z,37.90
2018-03-28T15:34:36.453Z,41.40
2018-03-28T15:37:04.340Z,38.67
2018-03-28T15:39:31.956Z,42.47
2018-03-28T15:41:59.512Z,39.23
2018-03-28T15:44:27.398Z,36.53
2018-03-28T15:46:55.092Z,34.87
2018-03-28T15:49:22.696Z,40.43
2018-03-28T15:51:50.713Z,39.13
2018-03-28T15:54:18.327Z,40.17
2018-03-28T15:56:45.894Z,37.83
2018-03-28T15:59:13.910Z,37.27
2018-03-28T16:01:42.382Z,37.33
2018-03-28T16:04:10.209Z,41.07
2018-03-28T16:06:39.231Z,38.33
2018-03-28T16:09:07.433Z,37.53
2018-03-28T16:11:35.344Z,39.97
2018-03-28T16:14:03.446Z,41.30
2018-03-28T16:16:31.550Z,41.07
2018-03-28T16:18:59.496Z,39.30
2018-03-28T16:21:27.427Z,39.33
2018-03-28T16:23:56.493Z,42.07
2018-03-28T16:26:26.361Z,39.67
2018-03-28T16:28:54.652Z,38.30
2018-03-28T16:31:23.164Z,41.07
2018-03-28T16:33:51.643Z,40.67
2018-03-28T16:36:20.380Z,39.93
2018-03-28T16:38:49.767Z,42.33
2018-03-28T16:41:18.748Z,35.53
2018-03-28T16:43:47.012Z,39.50
2018-03-28T16:46:16.505Z,40.90
2018-03-28T16:48:44.884Z,39.87
2018-03-28T16:51:14.124Z,38.57
2018-03-28T16:53:42.820Z,38.55
2018-03-28T16:56:11.590Z,39.90
2018-03-28T16:58:40.241Z,44.53
2018-03-28T17:01:08.535Z,51.60
2018-03-28T17:03:41.333Z,56.63
2018-03-28T17:06:11.214Z,50.17
2018-03-28T17:08:40.036Z,60.17
2018-03-28T17:11:09.049Z,47.63
2018-03-28T17:13:37.498Z,45.83
2018-03-28T17:16:06.524Z,49.63
2018-03-28T17:18:35.248Z,48.73
2018-03-28T17:21:03.939Z,49.07
2018-03-28T17:23:32.884Z,48.97
2018-03-28T17:26:01.301Z,52.17
2018-03-28T17:28:31.219Z,70.63
2018-03-28T17:30:59.473Z,61.77
2018-03-28T17:33:27.981Z,66.00
2018-03-28T17:35:56.291Z,57.57
2018-03-28T17:38:29.035Z,62.20
2018-03-28T17:40:57.669Z,69.50
2018-03-28T17:43:26.772Z,91.50
2018-03-28T17:45:55.018Z,87.30
2018-03-28T17:48:23.887Z,94.80
2018-03-28T17:50:53.330Z,105.20
2018-03-28T17:53:22.489Z,100.27
2018-03-28T17:55:50.901Z,102.87
2018-03-28T17:58:19.999Z,109.27
2018-03-28T18:00:49.365Z,113.17
2018-03-28T18:03:17.731Z,123.10
2018-03-28T18:05:47.825Z,136.97
2018-03-28T18:08:18.104Z,184.70
2018-03-28T18:10:46.858Z,194.80
2018-03-28T18:13:17.415Z,157.43
2018-03-28T18:15:45.896Z,129.13
2018-03-28T18:18:15.922Z,121.83
2018-03-28T18:20:44.706Z,107.17
2018-03-28T18:23:12.831Z,111.70
2018-03-28T18:25:42.659Z,104.30
2018-03-28T18:28:13.495Z,99.90
2018-03-28T18:30:42.175Z,103.13
2018-03-28T18:33:10.654Z,103.83
2018-03-28T18:35:39.264Z,102.20
2018-03-28T18:38:07.624Z,104.60
2018-03-28T18:40:36.125Z,108.60
2018-03-28T18:43:04.943Z,100.97
2018-03-28T18:45:33.986Z,96.87
2018-03-28T18:48:02.690Z,97.20
2018-03-28T18:50:31.696Z,100.90
2018-03-28T18:53:00.367Z,97.33
2018-03-28T18:55:28.734Z,91.03
2018-03-28T18:57:57.669Z,99.00
2018-03-28T19:00:27.587Z,103.57
2018-03-28T19:02:57.563Z,105.40
2018-03-28T19:05:26.992Z,93.30
2018-03-28T19:07:55.471Z,86.37
2018-03-28T19:10:25.404Z,87.13
2018-03-28T19:12:54.748Z,78.77
2018-03-28T19:15:24.598Z,80.17
2018-03-28T19:17:54.984Z,72.60
2018-03-28T19:20:23.497Z,63.47
2018-03-28T19:22:51.768Z,73.33
2018-03-28T19:25:21.259Z,68.93
2018-03-28T19:27:52.465Z,65.20
2018-03-28T19:30:20.558Z,65.03
2018-03-28T19:32:48.943Z,47.83
2018-03-28T19:35:17.542Z,50.17
2018-03-28T19:37:46.225Z,55.10
2018-03-28T19:40:15.202Z,49.77
2018-03-28T19:42:43.913Z,53.70
2018-03-28T19:45:12.216Z,50.70
2018-03-28T19:47:41.355Z,53.67
2018-03-28T19:50:10.975Z,49.97
2018-03-28T19:52:39.335Z,53.27
2018-03-28T19:55:07.722Z,58.23
2018-03-28T19:57:36.404Z,55.60
2018-03-28T20:00:04.702Z,55.70
2018-03-28T20:02:33.498Z,60.73
2018-03-28T20:05:02.632Z,61.03
2018-03-28T20:07:31.147Z,91.87
2018-03-28T20:09:59.434Z,93.17
2018-03-28T20:12:27.887Z,121.33
2018-03-28T20:14:56.509Z,147.20
2018-03-28T20:17:24.995Z,165.03
2018-03-28T20:19:52.629Z,119.17
2018-03-28T20:22:21.870Z,111.07
2018-03-28T20:24:51.778Z,118.47
2018-03-28T20:27:19.951Z,115.80
2018-03-28T20:29:48.842Z,117.80
2018-03-28T20:32:17.899Z,113.20
2018-03-28T20:34:47.498Z,122.83
2018-03-28T20:37:16.214Z,116.43
2018-03-28T20:39:45.225Z,148.83
2018-03-28T20:42:14.201Z,148.83
2018-03-28T20:44:44.099Z,128.30
2018-03-28T20:47:13.239Z,109.83
2018-03-28T20:49:42.514Z,134.37
2018-03-28T20:52:10.583Z,206.77
2018-03-28T20:54:40.090Z,199.13
2018-03-28T20:57:10.175Z,151.87
2018-03-28T20:59:38.238Z,197.40
2018-03-28T21:02:06.236Z,135.23
2018-03-28T21:04:35.093Z,154.97
2018-03-28T21:07:04.404Z,155.57
2018-03-28T21:09:32.146Z,145.60
2018-03-28T21:12:00.683Z,134.07
2018-03-28T21:14:30.394Z,123.97
2018-03-28T21:16:58.367Z,129.90
2018-03-28T21:19:25.949Z,126.43
2018-03-28T21:21:53.722Z,121.30
2018-03-28T21:24:21.509Z,120.90
2018-03-28T21:26:49.522Z,119.73
2018-03-28T21:29:17.128Z,117.90
2018-03-28T21:31:44.688Z,117.47
2018-03-28T21:34:12.275Z,118.13
2018-03-28T21:36:40.248Z,113.80
2018-03-28T21:39:08.374Z,114.67
2018-03-28T21:41:35.922Z,119.73
2018-03-28T21:44:03.520Z,129.23
2018-03-28T21:46:31.104Z,137.30
2018-03-28T21:48:58.711Z,172.43
2018-03-28T21:51:26.266Z,174.70
2018-03-28T21:53:55.264Z,165.03
2018-03-28T21:56:22.869Z,152.40
2018-03-28T21:58:50.432Z,149.47
2018-03-28T22:01:17.997Z,151.60
2018-03-28T22:03:46.326Z,160.77
2018-03-28T22:06:13.934Z,151.50
2018-03-28T22:08:41.507Z,151.47
2018-03-28T22:11:09.068Z,157.87
2018-03-28T22:13:36.660Z,169.40
2018-03-28T22:16:04.523Z,176.83
2018-03-28T22:18:32.097Z,181.73
2018-03-28T22:20:59.721Z,165.00
2018-03-28T22:23:27.335Z,160.50
2018-03-28T22:25:54.892Z,163.33
2018-03-28T22:28:22.451Z,174.20
2018-03-28T22:30:50.190Z,176.47
2018-03-28T22:33:17.749Z,155.53
2018-03-28T22:35:45.863Z,159.27
2018-03-28T22:38:13.481Z,156.27
2018-03-28T22:40:41.036Z,180.60
2018-03-28T22:43:09.915Z,152.90
2018-03-28T22:45:37.470Z,155.40
2018-03-28T22:48:05.202Z,156.77
2018-03-28T22:50:32.812Z,163.90
2018-03-28T22:53:00.359Z,161.00
2018-03-28T22:55:27.955Z,166.77
2018-03-28T22:57:55.508Z,183.93
2018-03-28T23:00:23.532Z,185.67
2018-03-28T23:02:51.094Z,179.73
2018-03-28T23:05:18.696Z,197.50
2018-03-28T23:07:46.438Z,218.60
2018-03-28T23:10:14.177Z,204.17
2018-03-28T23:12:41.747Z,211.83
2018-03-28T23:15:11.266Z,202.67
2018-03-28T23:17:38.844Z,226.83
2018-03-28T23:20:06.433Z,302.63
2018-03-28T23:22:38.982Z,291.33
2018-03-28T23:25:06.588Z,206.20
2018-03-28T23:27:34.179Z,181.00
2018-03-28T23:30:01.733Z,170.93
2018-03-28T23:32:29.291Z,171.63
2018-03-28T23:34:56.896Z,142.47
2018-03-28T23:37:24.438Z,152.40
2018-03-28T23:39:52.027Z,153.27
2018-03-28T23:42:19.764Z,156.93
2018-03-28T23:44:47.363Z,138.60
2018-03-28T23:47:14.907Z,143.53
2018-03-28T23:49:42.500Z,142.70
2018-03-28T23:52:10.185Z,137.63
2018-03-28T23:54:37.799Z,137.73
2018-03-28T23:57:05.385Z,132.03
2018-03-28T23:59:32.935Z,117.67
